Time;durP1;ratioP1;P1;durP2;ratioP2;P2;SDS_P1;SDS_P2;PMS_P1;PMS_P2;Temp;Humidity;BMP_temperature;BMP_pressure;BME280_temperature;BME280_humidity;BME280_pressure;Samples;Min_cycle;Max_cycle;Signal;HPM_P1;HPM_P2
2022/09/24 00:01:07;;;;;;;41.30;32.17;;;14.10;99.90;;;;;;5147068;27;20055;-72
2022/09/24 00:03:32;;;;;;;43.67;32.58;;;14.00;99.90;;;;;;5154002;27;20084;-70
2022/09/24 00:06:02;;;;;;;42.00;32.55;;;14.10;99.90;;;;;;5153928;27;20479;-70
2022/09/24 00:08:28;;;;;;;42.58;33.20;;;14.10;99.90;;;;;;5135126;27;20042;-70
2022/09/24 00:10:55;;;;;;;46.38;33.78;;;14.10;99.90;;;;;;5154033;27;20043;-70
2022/09/24 00:13:22;;;;;;;42.13;33.15;;;14.20;99.90;;;;;;5153868;27;20062;-70
2022/09/24 00:15:49;;;;;;;42.50;32.08;;;14.20;99.90;;;;;;5153389;27;20039;-70
2022/09/24 00:18:16;;;;;;;50.08;35.83;;;14.20;99.90;;;;;;5154451;27;20454;-70
2022/09/24 00:20:42;;;;;;;48.28;36.25;;;14.10;99.90;;;;;;5153655;27;20054;-70
2022/09/24 00:23:10;;;;;;;47.83;36.65;;;14.10;99.90;;;;;;5154031;27;20402;-71
2022/09/24 00:28:31;;;;;;;47.53;36.65;;;14.00;99.90;;;;;;5133635;28;20126;-70
2022/09/24 00:30:58;;;;;;;52.20;38.42;;;14.20;99.90;;;;;;5132970;28;20114;-70
2022/09/24 00:33:27;;;;;;;53.58;38.22;;;14.00;99.90;;;;;;5133271;28;20446;-71
2022/09/24 00:35:57;;;;;;;51.80;38.42;;;14.00;99.90;;;;;;5126535;28;20043;-71
2022/09/24 00:38:23;;;;;;;51.67;38.88;;;14.00;99.90;;;;;;5116998;27;20043;-70
2022/09/24 00:40:49;;;;;;;51.15;39.13;;;14.00;99.90;;;;;;5153104;27;20498;-70
2022/09/24 00:43:23;;;;;;;47.78;39.20;;;14.00;99.90;;;;;;5153772;27;20130;-71
2022/09/24 00:45:51;;;;;;;52.70;40.60;;;14.00;99.90;;;;;;5133462;27;20159;-70
2022/09/24 00:48:18;;;;;;;51.65;39.72;;;14.10;99.90;;;;;;5153679;27;20117;-70
2022/09/24 00:50:43;;;;;;;54.40;41.10;;;14.10;99.90;;;;;;5135181;27;20047;-70
2022/09/24 00:53:17;;;;;;;54.45;41.58;;;14.00;99.90;;;;;;5153682;27;20095;-71
2022/09/24 00:55:49;;;;;;;54.85;41.10;;;14.00;99.90;;;;;;5153863;27;20047;-71
2022/09/24 00:58:15;;;;;;;51.92;40.85;;;14.00;99.90;;;;;;5153450;27;20498;-71
2022/09/24 01:00:44;;;;;;;53.55;41.65;;;14.10;99.90;;;;;;5152936;27;20049;-70
2022/09/24 01:03:20;;;;;;;57.42;42.55;;;14.10;99.90;;;;;;5153800;27;20039;-71
2022/09/24 01:05:46;;;;;;;57.42;42.63;;;14.10;99.90;;;;;;5154352;27;20867;-70
2022/09/24 01:08:13;;;;;;;58.80;42.92;;;14.20;99.90;;;;;;5151986;27;20111;-70
2022/09/24 01:11:01;;;;;;;59.50;44.33;;;14.00;99.90;;;;;;5154583;27;20121;-70
2022/09/24 01:13:53;;;;;;;67.13;45.03;;;14.00;99.90;;;;;;5157445;27;20432;-70
2022/09/24 01:16:43;;;;;;;60.10;43.20;;;14.10;99.90;;;;;;5156695;27;20526;-70
2022/09/24 01:19:30;;;;;;;63.50;44.92;;;14.00;99.90;;;;;;5156738;27;20457;-71
2022/09/24 01:21:59;;;;;;;62.75;46.15;;;14.00;99.90;;;;;;5156643;27;20046;-70
2022/09/24 01:24:39;;;;;;;59.38;44.83;;;14.10;99.90;;;;;;5138676;27;20498;-70
2022/09/24 01:27:13;;;;;;;62.08;45.67;;;14.00;99.90;;;;;;5136092;27;20047;-71
2022/09/24 01:30:01;;;;;;;61.25;44.53;;;14.00;99.90;;;;;;5123474;27;20045;-70
2022/09/24 01:32:48;;;;;;;63.08;46.78;;;14.00;99.90;;;;;;5122460;27;20403;-71
2022/09/24 01:35:28;;;;;;;65.85;46.92;;;14.60;99.90;;;;;;5116971;27;20082;-71
2022/09/24 01:38:00;;;;;;;70.07;48.92;;;14.10;99.90;;;;;;5115892;28;20441;-70
2022/09/24 01:40:27;;;;;;;64.72;47.90;;;14.10;99.90;;;;;;5114252;28;20130;-71
2022/09/24 01:42:55;;;;;;;71.68;49.42;;;14.00;99.90;;;;;;5115558;28;20048;-71
2022/09/24 01:45:22;;;;;;;68.35;49.38;;;14.10;99.90;;;;;;5114234;28;20051;-71
2022/09/24 01:47:49;;;;;;;65.18;50.28;;;14.10;99.90;;;;;;5115729;28;20032;-70
2022/09/24 01:50:18;;;;;;;65.68;51.08;;;14.00;99.90;;;;;;5115705;28;20048;-70
2022/09/24 01:53:06;;;;;;;64.53;49.92;;;14.00;99.90;;;;;;5115333;28;20032;-71
2022/09/24 01:55:41;;;;;;;68.07;51.90;;;14.10;99.90;;;;;;5113830;28;20035;-70
2022/09/24 01:58:09;;;;;;;;;;;14.10;99.90;;;;;;5106783;28;20048;-71
2022/09/24 02:00:41;;;;;;;67.53;50.97;;;14.00;99.90;;;;;;5113673;28;20255;-70
2022/09/24 02:03:26;;;;;;;67.88;49.15;;;14.00;99.90;;;;;;5114792;28;20043;-71
2022/09/24 02:06:09;;;;;;;69.35;49.13;;;14.00;99.90;;;;;;5114901;28;20057;-70
2022/09/24 02:08:40;;;;;;;71.88;52.42;;;14.20;99.90;;;;;;5115183;28;20101;-70
2022/09/24 02:11:21;;;;;;;71.63;50.60;;;14.10;99.90;;;;;;5113167;28;20043;-71
2022/09/24 02:13:53;;;;;;;70.80;51.95;;;14.10;99.90;;;;;;5112349;28;20051;-70
2022/09/24 02:16:25;;;;;;;76.28;53.83;;;14.10;99.90;;;;;;5114218;28;20096;-70
2022/09/24 02:18:53;;;;;;;77.03;53.38;;;14.60;99.90;;;;;;5115376;28;20113;-70
2022/09/24 02:21:22;;;;;;;80.38;55.63;;;14.10;99.90;;;;;;5114440;28;20040;-71
2022/09/24 02:23:56;;;;;;;75.03;52.47;;;14.40;99.90;;;;;;5114999;28;20528;-70
2022/09/24 02:26:22;;;;;;;68.95;51.78;;;14.10;99.90;;;;;;5113424;28;20437;-70
2022/09/24 02:28:48;;;;;;;71.13;51.15;;;14.10;99.90;;;;;;5115185;28;20039;-70
2022/09/24 02:31:22;;;;;;;69.50;51.25;;;14.20;99.90;;;;;;5114404;28;20031;-70
2022/09/24 02:36:37;;;;;;;57.28;45.20;;;14.10;99.90;;;;;;5144330;27;20121;-70
2022/09/24 02:39:03;;;;;;;54.67;41.95;;;14.10;99.90;;;;;;5155459;27;20421;-70
2022/09/24 02:41:30;;;;;;;42.22;34.47;;;14.10;99.90;;;;;;5154999;27;20130;-71
2022/09/24 02:43:55;;;;;;;44.45;35.42;;;14.20;99.90;;;;;;5154138;27;20363;-70
2022/09/24 02:46:21;;;;;;;36.70;31.48;;;14.10;99.90;;;;;;5155611;27;20031;-70
2022/09/24 02:48:47;;;;;;;43.20;35.90;;;14.10;99.90;;;;;;5155489;27;20038;-70
2022/09/24 02:51:12;;;;;;;48.50;38.85;;;14.10;99.90;;;;;;5149357;27;20049;-70
2022/09/24 02:53:38;;;;;;;50.95;40.70;;;14.50;99.90;;;;;;5135935;27;20050;-70
2022/09/24 02:56:04;;;;;;;50.95;40.75;;;14.10;99.90;;;;;;5155004;27;20058;-70
2022/09/24 02:58:30;;;;;;;51.53;40.65;;;14.10;99.90;;;;;;5155020;27;20081;-71
2022/09/24 03:00:56;;;;;;;55.03;43.78;;;14.10;99.90;;;;;;5154403;27;20038;-70
2022/09/24 03:03:23;;;;;;;63.80;45.80;;;14.10;99.90;;;;;;5135928;27;20039;-71
2022/09/24 03:05:53;;;;;;;59.88;44.88;;;15.00;99.90;;;;;;5154904;27;20043;-71
2022/09/24 03:08:20;;;;;;;52.97;40.65;;;14.00;99.90;;;;;;5150265;27;20046;-70
2022/09/24 03:10:46;;;;;;;42.95;35.42;;;14.00;99.90;;;;;;5153146;27;20054;-70
2022/09/24 03:13:12;;;;;;;41.10;34.08;;;14.20;99.90;;;;;;5154499;27;20089;-71
2022/09/24 03:15:38;;;;;;;38.88;31.83;;;14.20;99.90;;;;;;5135901;27;20057;-71
2022/09/24 03:18:04;;;;;;;43.25;34.40;;;14.40;99.90;;;;;;5155090;27;20048;-70
2022/09/24 03:20:30;;;;;;;41.45;34.80;;;14.10;99.90;;;;;;5154607;27;20122;-71
2022/09/24 03:22:55;;;;;;;42.00;33.78;;;14.00;99.90;;;;;;5154847;27;20043;-70
2022/09/24 03:25:21;;;;;;;45.30;35.22;;;14.00;99.90;;;;;;5153576;27;20042;-71
2022/09/24 03:27:47;;;;;;;44.28;35.13;;;14.00;99.90;;;;;;5135596;27;20130;-70
2022/09/24 03:32:58;;;;;;;39.67;32.90;;;14.00;99.90;;;;;;5154790;27;20055;-70
2022/09/24 03:35:24;;;;;;;41.63;33.42;;;14.10;99.90;;;;;;5118692;27;20051;-70
2022/09/24 03:37:50;;;;;;;42.60;33.80;;;14.30;99.90;;;;;;5154653;27;20043;-70
2022/09/24 03:40:16;;;;;;;41.55;33.30;;;14.00;99.90;;;;;;5154344;27;20042;-70
2022/09/24 03:42:42;;;;;;;38.97;31.33;;;14.00;99.90;;;;;;5154526;27;20038;-70
2022/09/24 03:45:08;;;;;;;38.72;31.50;;;14.00;99.90;;;;;;5154520;27;20399;-70
2022/09/24 03:47:33;;;;;;;40.00;31.42;;;14.00;99.90;;;;;;5154465;27;20081;-71
2022/09/24 03:49:59;;;;;;;39.70;30.48;;;14.10;99.90;;;;;;5154568;27;20078;-70
2022/09/24 03:52:25;;;;;;;41.58;31.50;;;14.00;99.90;;;;;;5153222;27;20082;-70
2022/09/24 03:54:51;;;;;;;41.90;31.92;;;14.00;99.90;;;;;;5134446;27;20050;-71
2022/09/24 03:57:17;;;;;;;41.53;31.83;;;14.10;99.90;;;;;;5152747;27;20038;-70
2022/09/24 03:59:43;;;;;;;42.20;31.90;;;14.20;99.90;;;;;;5154168;27;20034;-70
2022/09/24 04:02:10;;;;;;;38.13;31.33;;;14.10;99.90;;;;;;5153739;27;20053;-71
2022/09/24 04:04:36;;;;;;;39.65;30.65;;;14.10;99.90;;;;;;5154394;27;20039;-70
2022/09/24 04:07:02;;;;;;;39.25;29.35;;;14.10;99.90;;;;;;5154247;27;20039;-70
2022/09/24 04:09:28;;;;;;;40.50;29.67;;;14.10;99.90;;;;;;5147710;27;20034;-70
2022/09/24 04:11:53;;;;;;;39.65;28.15;;;14.10;99.90;;;;;;5153480;27;20038;-70
2022/09/24 04:14:19;;;;;;;37.50;27.23;;;14.20;99.90;;;;;;5153475;27;20475;-71
2022/09/24 04:16:45;;;;;;;37.53;25.25;;;14.20;99.90;;;;;;5153584;27;20507;-70
2022/09/24 04:19:14;;;;;;;42.58;25.77;;;14.20;99.90;;;;;;5135658;27;20489;-70
2022/09/24 04:21:41;;;;;;;37.05;24.67;;;14.10;99.90;;;;;;5153525;27;20038;-70
2022/09/24 04:24:07;;;;;;;37.75;22.77;;;14.20;99.90;;;;;;5154209;27;20038;-70
2022/09/24 04:26:33;;;;;;;32.22;20.38;;;14.20;99.90;;;;;;5135257;27;20046;-70
2022/09/24 04:28:59;;;;;;;30.38;19.40;;;14.20;99.90;;;;;;5154386;27;20390;-70
2022/09/24 04:31:28;;;;;;;25.80;16.65;;;14.20;99.90;;;;;;5153831;27;20117;-70
2022/09/24 04:33:53;;;;;;;26.48;13.63;;;14.20;99.90;;;;;;5153866;27;20482;-71
2022/09/24 04:36:19;;;;;;;20.60;9.45;;;14.40;99.90;;;;;;5153770;27;20047;-71
2022/09/24 04:38:45;;;;;;;19.38;8.10;;;14.30;99.90;;;;;;5153498;27;20047;-70
2022/09/24 04:41:11;;;;;;;15.02;7.15;;;14.30;99.90;;;;;;5156431;27;20155;-70
2022/09/24 04:43:37;;;;;;;17.42;5.75;;;14.20;99.90;;;;;;5153662;27;20052;-70
2022/09/24 04:46:04;;;;;;;20.23;4.15;;;14.20;99.90;;;;;;5156043;27;20049;-70
2022/09/24 04:48:30;;;;;;;15.38;3.35;;;14.20;99.90;;;;;;5137579;27;20049;-70
2022/09/24 04:50:56;;;;;;;10.57;2.85;;;14.30;99.90;;;;;;5149478;27;20114;-70
2022/09/24 04:53:22;;;;;;;18.67;3.70;;;14.20;99.90;;;;;;5132521;27;20042;-70
2022/09/24 04:55:48;;;;;;;12.05;2.70;;;14.20;99.90;;;;;;5157360;27;20038;-70
2022/09/24 04:58:14;;;;;;;13.27;3.03;;;14.20;99.90;;;;;;5157342;27;20042;-70
2022/09/24 05:00:41;;;;;;;15.70;2.92;;;14.30;99.90;;;;;;5156967;27;20046;-71
2022/09/24 05:03:06;;;;;;;15.63;2.90;;;14.20;99.90;;;;;;5157650;27;20092;-70
2022/09/24 05:05:33;;;;;;;13.98;2.90;;;14.30;99.90;;;;;;5157391;27;20100;-71
2022/09/24 05:08:00;;;;;;;15.38;2.72;;;14.10;99.90;;;;;;5157525;27;20031;-71
2022/09/24 05:10:26;;;;;;;12.60;2.58;;;14.70;99.90;;;;;;5156670;27;20483;-71
2022/09/24 05:12:52;;;;;;;12.90;2.65;;;14.10;99.90;;;;;;5156926;27;20038;-70
2022/09/24 05:15:18;;;;;;;14.70;2.50;;;14.10;99.90;;;;;;5157090;27;20042;-70
2022/09/24 05:17:44;;;;;;;12.77;2.50;;;14.20;99.90;;;;;;5156877;27;20088;-71
2022/09/24 05:20:10;;;;;;;13.38;2.50;;;14.20;99.90;;;;;;5157015;27;20051;-71
2022/09/24 05:22:48;;;;;;;15.05;2.97;;;14.20;99.90;;;;;;5138727;27;20043;-71
2022/09/24 05:25:15;;;;;;;12.82;2.60;;;14.10;99.90;;;;;;5156519;27;20066;-71
2022/09/24 05:27:49;;;;;;;13.95;2.45;;;14.10;99.90;;;;;;5156722;27;20046;-71
2022/09/24 05:30:16;;;;;;;9.52;2.33;;;14.10;99.90;;;;;;5157062;27;20134;-71
2022/09/24 05:32:42;;;;;;;12.70;2.50;;;14.40;99.90;;;;;;5157406;27;20479;-71
2022/09/24 05:35:08;;;;;;;15.65;3.25;;;14.10;99.90;;;;;;5134798;27;20125;-71
2022/09/24 05:37:35;;;;;;;15.27;2.88;;;14.20;99.90;;;;;;5136361;27;20050;-71
2022/09/24 05:40:46;;;;;;;9.57;2.22;;;14.20;99.90;;;;;;5136321;27;20039;-71
2022/09/24 05:42:49;;;;;;;13.10;2.40;;;14.10;99.90;;;;;;5156862;27;20039;-71
2022/09/24 05:45:16;;;;;;;14.13;2.70;;;14.20;99.90;;;;;;5146073;27;20050;-71
2022/09/24 05:47:44;;;;;;;15.77;3.10;;;14.30;99.90;;;;;;5136212;27;20035;-71
2022/09/24 05:50:10;;;;;;;11.77;2.67;;;14.20;99.90;;;;;;5156620;27;20047;-71
2022/09/24 05:52:36;;;;;;;11.55;2.80;;;14.20;99.90;;;;;;5137934;27;20043;-71
2022/09/24 05:55:02;;;;;;;13.05;2.58;;;14.20;99.90;;;;;;5157012;27;20479;-72
2022/09/24 05:57:28;;;;;;;12.43;2.60;;;14.20;99.90;;;;;;5156922;27;20038;-72
2022/09/24 05:59:54;;;;;;;13.07;3.03;;;14.20;99.90;;;;;;5156997;27;20494;-71
2022/09/24 06:02:19;;;;;;;15.32;2.47;;;14.20;99.90;;;;;;5155541;27;20045;-72
2022/09/24 06:04:45;;;;;;;9.95;2.35;;;14.20;99.90;;;;;;5155859;27;20496;-72
2022/09/24 06:07:10;;;;;;;11.13;2.63;;;14.20;99.90;;;;;;5156554;27;20035;-71
2022/09/24 06:09:36;;;;;;;15.95;2.72;;;14.20;99.90;;;;;;5139586;27;20483;-72
2022/09/24 06:12:02;;;;;;;14.35;2.80;;;14.50;99.90;;;;;;5144048;27;20031;-71
2022/09/24 06:14:27;;;;;;;11.18;2.35;;;14.30;99.90;;;;;;5138132;27;20062;-71
2022/09/24 06:16:53;;;;;;;8.65;2.45;;;14.30;99.90;;;;;;5155588;27;20035;-71
2022/09/24 06:19:18;;;;;;;13.75;3.08;;;14.20;99.90;;;;;;5153785;27;20114;-71
2022/09/24 06:21:44;;;;;;;12.40;2.72;;;14.40;99.90;;;;;;5156155;27;20080;-71
2022/09/24 06:24:10;;;;;;;14.38;2.67;;;14.30;99.90;;;;;;5154711;27;20046;-71
2022/09/24 06:26:36;;;;;;;12.50;3.00;;;14.30;99.90;;;;;;5155742;27;20054;-72
2022/09/24 06:29:02;;;;;;;16.67;2.70;;;14.30;99.90;;;;;;5137934;27;20039;-72
2022/09/24 06:31:28;;;;;;;18.98;2.90;;;14.30;99.90;;;;;;5135229;27;20035;-72
2022/09/24 06:33:54;;;;;;;16.83;3.33;;;14.30;99.90;;;;;;5135182;27;20066;-71
2022/09/24 06:36:19;;;;;;;12.27;2.80;;;14.30;99.90;;;;;;5116555;27;20570;-72
2022/09/24 06:38:49;;;;;;;12.65;2.63;;;14.30;99.90;;;;;;5133993;27;20051;-72
2022/09/24 06:41:15;;;;;;;14.02;2.60;;;14.30;99.90;;;;;;5132645;27;20051;-72
2022/09/24 06:43:41;;;;;;;14.98;3.08;;;14.30;99.90;;;;;;5151127;27;20126;-72
2022/09/24 06:46:06;;;;;;;15.32;3.30;;;14.40;99.90;;;;;;5134959;27;20141;-72
2022/09/24 06:48:32;;;;;;;18.88;3.05;;;14.40;99.90;;;;;;5116623;27;20096;-72
2022/09/24 06:50:58;;;;;;;15.27;3.00;;;14.40;99.90;;;;;;5134808;27;20372;-72
2022/09/24 06:53:24;;;;;;;20.00;3.08;;;14.40;99.90;;;;;;5134866;27;20472;-72
2022/09/24 06:55:50;;;;;;;15.00;3.08;;;14.40;99.90;;;;;;5133126;27;20064;-72
2022/09/24 06:58:19;;;;;;;14.63;3.17;;;14.50;99.90;;;;;;5117007;27;20058;-72
2022/09/24 07:00:53;;;;;;;17.02;2.97;;;14.50;99.90;;;;;;5134373;27;20091;-72
2022/09/24 07:03:20;;;;;;;12.82;2.88;;;14.50;99.90;;;;;;5133800;27;20050;-72
2022/09/24 07:05:47;;;;;;;13.02;2.58;;;14.50;99.90;;;;;;5116044;27;20051;-72
2022/09/24 07:08:12;;;;;;;10.20;2.13;;;14.50;99.90;;;;;;5138344;27;20054;-72
2022/09/24 07:10:45;;;;;;;15.45;2.90;;;14.50;99.90;;;;;;5154862;27;20069;-72
2022/09/24 07:13:12;;;;;;;16.20;3.00;;;14.50;99.90;;;;;;5154184;27;20035;-72
2022/09/24 07:15:38;;;;;;;17.75;2.90;;;14.60;99.90;;;;;;5155225;27;20083;-72
2022/09/24 07:18:04;;;;;;;17.00;2.92;;;14.60;99.90;;;;;;5155306;27;20056;-72
2022/09/24 07:20:30;;;;;;;12.75;2.47;;;14.60;99.90;;;;;;5154886;27;20035;-72
2022/09/24 07:22:56;;;;;;;17.25;3.00;;;14.70;99.90;;;;;;5155077;27;20042;-72
2022/09/24 07:25:22;;;;;;;11.60;2.30;;;14.70;99.90;;;;;;5154394;27;20497;-72
2022/09/24 07:27:48;;;;;;;11.68;2.60;;;14.70;99.90;;;;;;5155048;27;20039;-71
2022/09/24 07:30:14;;;;;;;13.10;2.50;;;14.70;99.90;;;;;;5155114;27;20134;-71
2022/09/24 07:32:39;;;;;;;14.10;2.50;;;14.70;99.90;;;;;;5135633;27;20034;-70
2022/09/24 07:35:05;;;;;;;12.80;2.60;;;14.80;99.90;;;;;;5154543;27;20050;-72
2022/09/24 07:37:32;;;;;;;11.50;2.70;;;14.80;99.90;;;;;;5135975;27;20043;-71
2022/09/24 07:39:58;;;;;;;9.75;2.47;;;14.80;99.90;;;;;;5154611;27;20047;-71
2022/09/24 07:42:24;;;;;;;13.20;2.22;;;14.90;99.90;;;;;;5135376;27;20050;-71
2022/09/24 07:44:50;;;;;;;10.45;2.45;;;14.90;99.90;;;;;;5115562;27;20506;-71
2022/09/24 07:47:16;;;;;;;9.77;2.03;;;14.90;99.90;;;;;;5133759;27;20035;-71
2022/09/24 07:49:43;;;;;;;10.65;2.38;;;14.90;99.90;;;;;;5115506;27;20054;-71
2022/09/24 07:52:10;;;;;;;10.45;2.03;;;14.80;99.90;;;;;;5133577;27;20108;-70
2022/09/24 07:54:35;;;;;;;7.70;1.70;;;14.80;99.90;;;;;;5131568;27;20091;-71
2022/09/24 07:57:01;;;;;;;5.53;1.90;;;14.80;99.90;;;;;;5124467;27;20034;-71
2022/09/24 07:59:28;;;;;;;7.15;1.77;;;14.80;99.90;;;;;;5154682;27;20035;-72
2022/09/24 08:01:53;;;;;;;8.93;2.00;;;14.80;99.90;;;;;;5153999;27;20050;-71
2022/09/24 08:04:19;;;;;;;11.05;1.98;;;14.80;99.90;;;;;;5134851;27;20055;-72
2022/09/24 08:06:45;;;;;;;8.98;2.10;;;14.80;99.90;;;;;;5153870;27;20172;-72
2022/09/24 08:09:10;;;;;;;8.85;2.03;;;14.90;99.90;;;;;;5154098;27;20027;-72
2022/09/24 08:11:38;;;;;;;11.43;2.10;;;14.80;99.90;;;;;;5153822;27;20061;-72
2022/09/24 08:14:03;;;;;;;11.18;2.22;;;14.90;99.90;;;;;;5154289;27;20402;-72
2022/09/24 08:16:29;;;;;;;10.45;2.58;;;14.90;99.90;;;;;;5153966;27;20043;-72
2022/09/24 08:18:55;;;;;;;10.68;2.40;;;15.00;99.90;;;;;;5153564;27;20043;-72
2022/09/24 08:21:20;;;;;;;12.63;2.25;;;15.00;99.90;;;;;;5151563;27;20069;-72
2022/09/24 08:23:46;;;;;;;10.50;2.33;;;15.10;99.90;;;;;;5153324;27;20043;-72
2022/09/24 08:26:13;;;;;;;9.55;2.60;;;15.10;99.90;;;;;;5153373;27;20089;-73
2022/09/24 08:28:40;;;;;;;9.77;2.40;;;15.20;99.90;;;;;;5139185;27;20110;-72
2022/09/24 08:31:10;;;;;;;15.55;2.67;;;15.20;99.90;;;;;;5150968;27;20117;-72
2022/09/24 08:33:36;;;;;;;12.90;2.88;;;15.30;99.90;;;;;;5134881;27;20406;-72
2022/09/24 08:36:05;;;;;;;10.60;2.47;;;15.20;99.90;;;;;;5153261;27;20047;-72
2022/09/24 08:38:30;;;;;;;11.43;2.03;;;15.30;99.90;;;;;;5153690;27;20058;-72
2022/09/24 08:41:11;;;;;;;12.35;2.40;;;15.30;99.90;;;;;;5134376;27;20479;-72
2022/09/24 08:43:58;;;;;;;14.25;2.63;;;15.30;99.90;;;;;;5114854;28;20050;-72
2022/09/24 08:49:30;;;;;;;15.38;2.92;;;15.30;99.90;;;;;;5153662;27;20042;-72
2022/09/24 08:52:29;;;;;;;14.25;2.75;;;15.30;99.90;;;;;;5152714;27;20452;-70
2022/09/24 08:55:01;;;;;;;12.93;2.50;;;15.30;99.90;;;;;;5135174;27;20469;-71
2022/09/24 08:57:27;;;;;;;14.02;2.67;;;15.30;99.90;;;;;;5153090;27;20041;-71
2022/09/24 08:59:53;;;;;;;9.70;2.13;;;15.30;99.90;;;;;;5153598;27;20424;-70
2022/09/24 09:02:44;;;;;;;14.73;2.13;;;15.30;99.90;;;;;;5151787;27;20095;-72
2022/09/24 09:05:45;;;;;;;13.73;2.33;;;15.30;99.90;;;;;;5135035;27;20038;-71
2022/09/24 09:08:28;;;;;;;10.70;2.22;;;15.40;99.90;;;;;;5153751;27;20065;-71
2022/09/24 09:10:59;;;;;;;11.15;2.55;;;15.40;99.90;;;;;;5152866;27;20042;-70
2022/09/24 09:13:28;;;;;;;9.57;2.10;;;15.40;99.90;;;;;;5153663;27;20099;-71
2022/09/24 09:16:25;;;;;;;9.40;1.80;;;15.40;99.90;;;;;;5133724;27;20398;-71
2022/09/24 09:18:55;;;;;;;10.95;2.20;;;15.50;99.90;;;;;;5131190;28;20408;-71
2022/09/24 09:21:26;;;;;;;17.63;2.40;;;15.50;99.90;;;;;;5113990;28;20415;-71
2022/09/24 09:23:55;;;;;;;6.53;1.85;;;15.50;99.90;;;;;;5114774;28;20050;-71
2022/09/24 09:26:21;;;;;;;12.27;2.20;;;15.50;99.90;;;;;;5132445;27;20042;-72
2022/09/24 09:28:47;;;;;;;9.88;1.80;;;15.50;99.90;;;;;;5135053;27;20415;-70
2022/09/24 09:31:31;;;;;;;6.28;1.70;;;15.50;99.90;;;;;;5135955;27;20096;-71
2022/09/24 09:34:28;;;;;;;8.63;2.08;;;15.50;99.90;;;;;;5136464;27;20050;-71
2022/09/24 09:37:15;;;;;;;9.30;1.80;;;15.50;99.90;;;;;;5121370;27;20061;-71
2022/09/24 09:40:15;;;;;;;10.07;1.70;;;15.60;99.90;;;;;;5156142;27;20066;-71
2022/09/24 09:42:43;;;;;;;10.23;1.80;;;15.60;99.90;;;;;;5156902;27;20123;-72
2022/09/24 09:45:40;;;;;;;5.28;1.92;;;15.60;99.90;;;;;;5156687;27;20053;-70
2022/09/24 09:48:12;;;;;;;4.57;1.30;;;15.60;99.90;;;;;;5156986;27;20488;-71
2022/09/24 09:50:46;;;;;;;4.38;1.48;;;15.60;99.90;;;;;;5156440;27;20038;-71
2022/09/24 09:53:26;;;;;;;5.68;1.95;;;15.70;99.90;;;;;;5156809;27;20114;-70
2022/09/24 09:55:52;;;;;;;5.32;1.42;;;15.60;99.90;;;;;;5156608;27;20038;-72
2022/09/24 09:58:23;;;;;;;7.00;1.55;;;15.60;99.90;;;;;;5134301;27;20043;-71
2022/09/24 10:00:50;;;;;;;7.88;1.83;;;15.60;99.90;;;;;;5128964;27;20047;-71
2022/09/24 10:03:31;;;;;;;8.15;1.75;;;15.70;99.90;;;;;;5155994;27;20035;-71
2022/09/24 10:06:03;;;;;;;5.50;1.50;;;15.70;99.90;;;;;;5155588;27;20059;-72
2022/09/24 10:08:29;;;;;;;5.57;1.60;;;15.80;99.90;;;;;;5137808;27;20035;-72
2022/09/24 10:11:00;;;;;;;4.90;1.55;;;15.80;99.90;;;;;;5154986;27;20577;-72
2022/09/24 10:13:26;;;;;;;5.60;1.80;;;15.90;99.90;;;;;;5156268;27;20042;-71
2022/09/24 10:15:57;;;;;;;6.45;1.92;;;15.90;99.90;;;;;;5135359;27;20054;-71
2022/09/24 10:18:33;;;;;;;5.05;1.50;;;16.00;99.90;;;;;;5117258;27;20083;-70
2022/09/24 10:21:03;;;;;;;4.95;1.27;;;16.00;99.90;;;;;;5136720;27;20043;-71
2022/09/24 10:23:40;;;;;;;7.10;1.70;;;16.00;99.90;;;;;;5154668;27;20054;-71
2022/09/24 10:26:08;;;;;;;6.95;1.90;;;16.00;99.90;;;;;;5134169;27;20035;-71
2022/09/24 10:31:40;;;;;;;6.60;2.17;;;16.00;99.90;;;;;;5154286;27;20054;-71
2022/09/24 10:34:23;;;;;;;5.43;1.80;;;16.00;99.90;;;;;;5152365;27;20118;-71
2022/09/24 10:37:01;;;;;;;8.88;1.70;;;15.90;99.90;;;;;;5152482;27;20042;-71
2022/09/24 10:39:28;;;;;;;6.95;2.10;;;15.90;99.90;;;;;;5133911;27;20039;-71
2022/09/24 10:41:58;;;;;;;9.95;2.10;;;15.90;99.90;;;;;;5136674;27;20050;-72
2022/09/24 10:44:34;;;;;;;8.07;1.90;;;16.00;99.90;;;;;;5137065;27;20167;-72
2022/09/24 10:47:18;;;;;;;12.02;2.33;;;16.10;99.90;;;;;;5115787;27;20035;-72
2022/09/24 10:50:06;;;;;;;9.82;2.17;;;16.10;99.90;;;;;;5135206;27;20514;-71
2022/09/24 10:52:38;;;;;;;10.63;2.20;;;16.10;99.90;;;;;;5134433;27;20138;-71
2022/09/24 10:55:20;;;;;;;10.70;2.03;;;16.10;99.90;;;;;;5134642;27;20082;-71
2022/09/24 10:57:51;;;;;;;6.88;1.63;;;16.00;99.90;;;;;;5145847;27;20076;-71
2022/09/24 11:00:38;;;;;;;10.18;2.08;;;16.10;99.90;;;;;;5154873;27;20394;-71
2022/09/24 11:03:34;;;;;;;8.70;1.85;;;16.10;99.90;;;;;;5154345;27;20118;-71
2022/09/24 11:06:37;;;;;;;9.93;1.67;;;16.00;99.90;;;;;;5151924;27;20042;-69
2022/09/24 11:09:27;;;;;;;7.43;1.92;;;16.00;99.90;;;;;;5152247;27;20089;-70
2022/09/24 11:12:04;;;;;;;7.80;1.92;;;16.00;99.90;;;;;;5132995;27;20050;-70
2022/09/24 11:15:06;;;;;;;5.30;1.50;;;16.00;99.90;;;;;;5151584;27;20038;-70
2022/09/24 11:17:37;;;;;;;6.80;1.85;;;16.00;99.90;;;;;;5151717;27;20125;-70
2022/09/24 11:20:17;;;;;;;9.20;1.98;;;16.00;99.90;;;;;;5152164;27;20190;-70
2022/09/24 11:22:45;;;;;;;7.00;1.60;;;16.00;99.90;;;;;;5151988;27;20398;-70
2022/09/24 11:25:17;;;;;;;7.10;1.90;;;15.90;99.90;;;;;;5133076;27;20125;-70
2022/09/24 11:28:04;;;;;;;7.65;1.92;;;15.90;99.90;;;;;;5151085;27;20447;-70
2022/09/24 11:30:57;;;;;;;5.45;1.67;;;15.90;99.90;;;;;;5132934;27;20043;-70
2022/09/24 11:33:41;;;;;;;5.63;1.42;;;15.90;99.90;;;;;;5133007;27;20046;-70
2022/09/24 11:36:33;;;;;;;7.28;2.10;;;15.80;99.90;;;;;;5132844;27;20108;-71
2022/09/24 11:39:11;;;;;;;5.20;1.65;;;15.80;99.90;;;;;;5137338;27;20087;-69
2022/09/24 11:42:04;;;;;;;6.60;1.60;;;15.70;99.90;;;;;;5111806;27;20131;-69
2022/09/24 11:45:01;;;;;;;9.27;1.77;;;15.70;99.90;;;;;;5130878;27;20066;-70
2022/09/24 11:47:45;;;;;;;10.82;1.80;;;15.60;99.90;;;;;;5130716;27;20119;-70
2022/09/24 11:50:16;;;;;;;9.18;1.88;;;15.70;99.90;;;;;;5130307;27;20039;-70
2022/09/24 11:52:51;;;;;;;7.75;1.80;;;15.70;99.90;;;;;;5130409;27;20461;-70
2022/09/24 11:55:33;;;;;;;6.93;1.73;;;15.60;99.90;;;;;;5134769;27;20039;-70
2022/09/24 11:58:08;;;;;;;7.95;1.90;;;15.60;99.90;;;;;;5127013;27;20487;-71
2022/09/24 12:00:39;;;;;;;8.25;1.77;;;15.60;99.90;;;;;;5134651;27;20042;-70
2022/09/24 12:03:43;;;;;;;8.15;1.77;;;15.70;99.90;;;;;;5135499;27;20046;-70
2022/09/24 12:06:31;;;;;;;8.32;2.03;;;15.60;99.90;;;;;;5154001;27;20081;-70
2022/09/24 12:09:16;;;;;;;6.53;1.60;;;15.60;99.90;;;;;;5154067;27;20121;-70
2022/09/24 12:11:48;;;;;;;8.05;1.90;;;15.60;99.90;;;;;;5153921;27;20051;-70
2022/09/24 12:14:22;;;;;;;9.63;1.70;;;15.70;99.90;;;;;;5154262;27;20038;-71
2022/09/24 12:16:55;;;;;;;9.10;2.00;;;15.70;99.90;;;;;;5148117;27;20039;-70
2022/09/24 12:19:26;;;;;;;5.65;1.50;;;15.60;99.90;;;;;;5132336;27;20127;-70
2022/09/24 12:21:53;;;;;;;10.98;1.80;;;15.60;99.90;;;;;;5133274;27;20130;-70
2022/09/24 12:24:41;;;;;;;4.95;1.40;;;15.60;99.90;;;;;;5133616;27;20036;-70
2022/09/24 12:27:16;;;;;;;6.57;1.20;;;15.60;99.90;;;;;;5133135;27;20035;-70
2022/09/24 12:33:06;;;;;;;5.97;1.58;;;15.60;99.90;;;;;;5133083;28;20051;-71
2022/09/24 12:35:46;;;;;;;9.43;2.13;;;15.50;99.90;;;;;;5132586;28;20058;-70
2022/09/24 12:38:42;;;;;;;7.25;1.60;;;15.50;99.90;;;;;;5114712;28;20051;-70
2022/09/24 12:41:23;;;;;;;8.43;1.60;;;15.60;99.90;;;;;;5132512;28;20099;-70
2022/09/24 12:44:01;;;;;;;6.28;1.80;;;15.60;99.90;;;;;;5133041;28;20054;-71
2022/09/24 12:46:27;;;;;;;6.05;1.75;;;15.50;99.90;;;;;;5114758;28;20395;-71
2022/09/24 12:48:54;;;;;;;6.45;1.50;;;15.50;99.90;;;;;;5133295;28;20051;-71
2022/09/24 12:51:21;;;;;;;6.18;1.80;;;15.50;99.90;;;;;;5149466;27;20043;-70
2022/09/24 12:54:03;;;;;;;5.90;1.60;;;15.50;99.90;;;;;;5134764;27;20043;-70
2022/09/24 12:56:29;;;;;;;8.30;1.77;;;15.50;99.90;;;;;;5134872;27;20046;-70
2022/09/24 12:58:56;;;;;;;7.78;1.60;;;15.50;99.90;;;;;;5134930;27;20043;-70
2022/09/24 13:01:29;;;;;;;6.57;1.80;;;15.50;99.90;;;;;;5131242;27;20068;-70
2022/09/24 13:04:15;;;;;;;6.97;1.70;;;15.40;99.90;;;;;;5134040;27;20035;-70
2022/09/24 13:06:45;;;;;;;7.50;1.90;;;15.40;99.90;;;;;;5133610;27;20070;-70
2022/09/24 13:09:25;;;;;;;7.22;1.90;;;15.40;99.90;;;;;;5153021;27;20047;-70
2022/09/24 13:12:13;;;;;;;6.05;1.50;;;15.30;99.90;;;;;;5152300;27;20134;-70
2022/09/24 13:14:42;;;;;;;9.23;1.50;;;15.30;99.90;;;;;;5110829;27;20058;-70